sensor_id;sensor_type;location;lat;lon;timestamp;pressure;altitude;pressure_sealevel;temperature;humidity
31225;BME280;17847;31.524;74.366;2023-12-28T00:00:11;99226.97;;;12.80;nan
31225;BME280;17847;31.524;74.366;2023-12-28T00:02:41;99236.19;;;12.84;nan
31225;BME280;17847;31.524;74.366;2023-12-28T00:05:11;99234.19;;;12.92;nan
31225;BME280;17847;31.524;74.366;2023-12-28T00:07:40;99230.25;;;12.82;nan
31225;BME280;17847;31.524;74.366;2023-12-28T00:10:10;99236.41;;;12.82;nan
31225;BME280;17847;31.524;74.366;2023-12-28T00:12:40;99233.94;;;12.81;nan
31225;BME280;17847;31.524;74.366;2023-12-28T00:15:09;99235.50;;;13.03;nan
31225;BME280;17847;31.524;74.366;2023-12-28T00:17:39;99239.72;;;12.91;nan
31225;BME280;17847;31.524;74.366;2023-12-28T00:20:09;99233.97;;;12.87;nan
31225;BME280;17847;31.524;74.366;2023-12-28T00:22:38;99236.09;;;12.71;nan
31225;BME280;17847;31.524;74.366;2023-12-28T00:25:08;99234.34;;;12.84;nan
31225;BME280;17847;31.524;74.366;2023-12-28T00:27:37;99235.97;;;12.79;nan
31225;BME280;17847;31.524;74.366;2023-12-28T00:30:07;99236.19;;;12.84;nan
31225;BME280;17847;31.524;74.366;2023-12-28T00:32:37;99241.94;;;12.59;nan
31225;BME280;17847;31.524;74.366;2023-12-28T00:35:07;99233.31;;;12.57;nan
31225;BME280;17847;31.524;74.366;2023-12-28T00:37:36;99231.00;;;12.69;nan
31225;BME280;17847;31.524;74.366;2023-12-28T00:40:06;99227.94;;;12.72;nan
31225;BME280;17847;31.524;74.366;2023-12-28T00:42:36;99235.25;;;12.91;nan
31225;BME280;17847;31.524;74.366;2023-12-28T00:45:05;99226.69;;;12.68;nan
31225;BME280;17847;31.524;74.366;2023-12-28T00:47:36;99236.63;;;12.59;nan
31225;BME280;17847;31.524;74.366;2023-12-28T00:50:06;99241.13;;;12.59;nan
31225;BME280;17847;31.524;74.366;2023-12-28T00:52:36;99240.13;;;12.60;nan
31225;BME280;17847;31.524;74.366;2023-12-28T00:55:06;99233.78;;;12.61;nan
31225;BME280;17847;31.524;74.366;2023-12-28T00:57:36;99233.44;;;12.71;nan
31225;BME280;17847;31.524;74.366;2023-12-28T01:00:07;99234.28;;;12.50;nan
31225;BME280;17847;31.524;74.366;2023-12-28T01:02:37;99242.47;;;12.27;nan
31225;BME280;17847;31.524;74.366;2023-12-28T01:05:07;99237.13;;;12.48;nan
31225;BME280;17847;31.524;74.366;2023-12-28T01:07:37;99246.56;;;12.51;nan
31225;BME280;17847;31.524;74.366;2023-12-28T01:10:06;99238.94;;;12.41;nan
31225;BME280;17847;31.524;74.366;2023-12-28T01:12:36;99245.25;;;12.40;nan
31225;BME280;17847;31.524;74.366;2023-12-28T01:15:06;99236.69;;;12.45;nan
31225;BME280;17847;31.524;74.366;2023-12-28T01:17:37;99243.66;;;12.46;nan
31225;BME280;17847;31.524;74.366;2023-12-28T01:20:07;99253.31;;;12.53;nan
31225;BME280;17847;31.524;74.366;2023-12-28T01:22:37;99249.72;;;12.61;nan
31225;BME280;17847;31.524;74.366;2023-12-28T01:25:07;99251.69;;;12.52;nan
31225;BME280;17847;31.524;74.366;2023-12-28T01:27:36;99255.94;;;12.47;nan
31225;BME280;17847;31.524;74.366;2023-12-28T01:30:06;99262.19;;;12.39;nan
31225;BME280;17847;31.524;74.366;2023-12-28T01:32:36;99258.09;;;12.37;nan
31225;BME280;17847;31.524;74.366;2023-12-28T01:35:05;99265.09;;;12.44;nan
31225;BME280;17847;31.524;74.366;2023-12-28T01:37:35;99258.28;;;12.35;nan
31225;BME280;17847;31.524;74.366;2023-12-28T01:40:05;99276.50;;;12.38;nan
31225;BME280;17847;31.524;74.366;2023-12-28T01:42:35;99271.16;;;12.59;nan
31225;BME280;17847;31.524;74.366;2023-12-28T01:45:06;99278.78;;;12.41;nan
31225;BME280;17847;31.524;74.366;2023-12-28T01:47:35;99275.97;;;12.49;nan
31225;BME280;17847;31.524;74.366;2023-12-28T01:50:06;99276.41;;;12.53;nan
31225;BME280;17847;31.524;74.366;2023-12-28T01:52:36;99285.22;;;12.32;nan
31225;BME280;17847;31.524;74.366;2023-12-28T01:55:07;99279.78;;;12.40;nan
31225;BME280;17847;31.524;74.366;2023-12-28T01:57:39;99276.38;;;12.25;nan
31225;BME280;17847;31.524;74.366;2023-12-28T02:00:09;99280.16;;;12.16;nan
31225;BME280;17847;31.524;74.366;2023-12-28T02:02:42;99274.06;;;12.22;nan
31225;BME280;17847;31.524;74.366;2023-12-28T02:05:12;99279.44;;;12.07;nan
31225;BME280;17847;31.524;74.366;2023-12-28T02:07:42;99278.38;;;12.23;nan
31225;BME280;17847;31.524;74.366;2023-12-28T02:10:12;99276.16;;;12.27;nan
31225;BME280;17847;31.524;74.366;2023-12-28T02:12:41;99287.88;;;12.32;nan
31225;BME280;17847;31.524;74.366;2023-12-28T02:15:11;99281.69;;;12.46;nan
31225;BME280;17847;31.524;74.366;2023-12-28T02:17:55;99280.56;;;12.34;nan
31225;BME280;17847;31.524;74.366;2023-12-28T02:20:29;99283.69;;;12.44;nan
31225;BME280;17847;31.524;74.366;2023-12-28T02:22:59;99287.09;;;12.17;nan
31225;BME280;17847;31.524;74.366;2023-12-28T02:25:28;99287.56;;;12.21;nan
31225;BME280;17847;31.524;74.366;2023-12-28T02:27:58;99294.81;;;12.12;nan
31225;BME280;17847;31.524;74.366;2023-12-28T02:30:29;99294.16;;;12.10;nan
31225;BME280;17847;31.524;74.366;2023-12-28T02:35:55;99295.88;;;12.18;nan
31225;BME280;17847;31.524;74.366;2023-12-28T02:38:29;99298.59;;;12.03;nan
31225;BME280;17847;31.524;74.366;2023-12-28T02:41:01;99299.50;;;11.95;nan
31225;BME280;17847;31.524;74.366;2023-12-28T02:43:33;99297.78;;;12.02;nan
31225;BME280;17847;31.524;74.366;2023-12-28T02:46:03;99312.94;;;12.08;nan
31225;BME280;17847;31.524;74.366;2023-12-28T02:48:33;99310.94;;;12.10;nan
31225;BME280;17847;31.524;74.366;2023-12-28T02:51:03;99302.97;;;12.10;nan
31225;BME280;17847;31.524;74.366;2023-12-28T02:53:33;99306.16;;;12.21;nan
31225;BME280;17847;31.524;74.366;2023-12-28T02:56:02;99299.09;;;12.13;nan
31225;BME280;17847;31.524;74.366;2023-12-28T02:58:32;99305.50;;;12.19;nan
31225;BME280;17847;31.524;74.366;2023-12-28T03:01:04;99305.94;;;11.86;nan
31225;BME280;17847;31.524;74.366;2023-12-28T03:03:33;99308.16;;;11.83;nan
31225;BME280;17847;31.524;74.366;2023-12-28T03:06:03;99304.25;;;12.00;nan
31225;BME280;17847;31.524;74.366;2023-12-28T03:08:33;99313.41;;;12.12;nan
31225;BME280;17847;31.524;74.366;2023-12-28T03:11:02;99310.66;;;12.05;nan
31225;BME280;17847;31.524;74.366;2023-12-28T03:13:32;99313.75;;;12.09;nan
31225;BME280;17847;31.524;74.366;2023-12-28T03:16:01;99312.91;;;12.23;nan
31225;BME280;17847;31.524;74.366;2023-12-28T03:18:31;99319.53;;;12.12;nan
31225;BME280;17847;31.524;74.366;2023-12-28T03:21:01;99320.13;;;12.29;nan
31225;BME280;17847;31.524;74.366;2023-12-28T03:23:31;99328.78;;;12.17;nan
31225;BME280;17847;31.524;74.366;2023-12-28T03:26:01;99322.91;;;12.42;nan
31225;BME280;17847;31.524;74.366;2023-12-28T03:28:30;99328.81;;;12.59;nan
31225;BME280;17847;31.524;74.366;2023-12-28T03:31:02;99329.25;;;12.41;nan
31225;BME280;17847;31.524;74.366;2023-12-28T03:33:34;99331.63;;;12.36;nan
31225;BME280;17847;31.524;74.366;2023-12-28T03:36:03;99335.81;;;12.45;nan
31225;BME280;17847;31.524;74.366;2023-12-28T03:38:33;99337.34;;;12.33;nan
31225;BME280;17847;31.524;74.366;2023-12-28T03:41:02;99351.00;;;12.30;nan
31225;BME280;17847;31.524;74.366;2023-12-28T03:43:32;99348.34;;;12.30;nan
31225;BME280;17847;31.524;74.366;2023-12-28T03:46:01;99349.22;;;12.37;nan
31225;BME280;17847;31.524;74.366;2023-12-28T03:48:31;99352.00;;;12.29;nan
31225;BME280;17847;31.524;74.366;2023-12-28T03:51:00;99353.19;;;12.27;nan
31225;BME280;17847;31.524;74.366;2023-12-28T03:53:30;99354.16;;;12.40;nan
31225;BME280;17847;31.524;74.366;2023-12-28T03:56:02;99362.25;;;12.32;nan
31225;BME280;17847;31.524;74.366;2023-12-28T03:58:32;99366.88;;;12.45;nan
31225;BME280;17847;31.524;74.366;2023-12-28T04:01:01;99366.19;;;12.57;nan
31225;BME280;17847;31.524;74.366;2023-12-28T04:03:31;99370.09;;;12.61;nan
31225;BME280;17847;31.524;74.366;2023-12-28T04:06:00;99369.53;;;12.45;nan
31225;BME280;17847;31.524;74.366;2023-12-28T04:08:31;99371.22;;;12.31;nan
31225;BME280;17847;31.524;74.366;2023-12-28T04:11:01;99373.81;;;12.25;nan
31225;BME280;17847;31.524;74.366;2023-12-28T04:13:35;99395.53;;;12.49;nan
31225;BME280;17847;31.524;74.366;2023-12-28T04:16:05;99396.63;;;12.76;nan
31225;BME280;17847;31.524;74.366;2023-12-28T04:18:35;99401.69;;;12.92;nan
31225;BME280;17847;31.524;74.366;2023-12-28T04:21:08;99410.38;;;12.80;nan
31225;BME280;17847;31.524;74.366;2023-12-28T04:23:41;99405.19;;;12.72;nan
31225;BME280;17847;31.524;74.366;2023-12-28T04:26:10;99404.03;;;12.81;nan
31225;BME280;17847;31.524;74.366;2023-12-28T04:28:40;99403.28;;;12.87;nan
31225;BME280;17847;31.524;74.366;2023-12-28T04:31:09;99410.50;;;12.72;nan
31225;BME280;17847;31.524;74.366;2023-12-28T04:33:39;99408.47;;;12.74;nan
31225;BME280;17847;31.524;74.366;2023-12-28T04:36:09;99414.63;;;12.74;nan
31225;BME280;17847;31.524;74.366;2023-12-28T04:38:38;99412.66;;;12.83;nan
31225;BME280;17847;31.524;74.366;2023-12-28T04:41:10;99410.44;;;12.86;nan
31225;BME280;17847;31.524;74.366;2023-12-28T04:43:40;99414.41;;;12.76;nan
31225;BME280;17847;31.524;74.366;2023-12-28T04:46:10;99412.53;;;12.91;nan
31225;BME280;17847;31.524;74.366;2023-12-28T04:48:39;99409.91;;;12.97;nan
31225;BME280;17847;31.524;74.366;2023-12-28T04:51:09;99410.13;;;12.96;nan
31225;BME280;17847;31.524;74.366;2023-12-28T04:53:39;99411.25;;;13.08;nan
31225;BME280;17847;31.524;74.366;2023-12-28T04:56:09;99411.13;;;12.95;nan
31225;BME280;17847;31.524;74.366;2023-12-28T04:58:39;99403.34;;;12.93;nan
31225;BME280;17847;31.524;74.366;2023-12-28T05:01:09;99409.22;;;13.10;nan
31225;BME280;17847;31.524;74.366;2023-12-28T05:03:39;99413.91;;;13.08;nan
31225;BME280;17847;31.524;74.366;2023-12-28T05:06:09;99409.91;;;12.97;nan
31225;BME280;17847;31.524;74.366;2023-12-28T05:08:38;99415.75;;;13.07;nan
31225;BME280;17847;31.524;74.366;2023-12-28T05:11:08;99406.00;;;13.15;nan
31225;BME280;17847;31.524;74.366;2023-12-28T05:13:38;99404.81;;;13.17;nan
31225;BME280;17847;31.524;74.366;2023-12-28T05:16:08;99405.44;;;13.19;nan
31225;BME280;17847;31.524;74.366;2023-12-28T05:18:37;99412.59;;;13.40;nan
31225;BME280;17847;31.524;74.366;2023-12-28T05:21:07;99412.03;;;13.51;nan
31225;BME280;17847;31.524;74.366;2023-12-28T05:23:37;99409.72;;;13.41;nan
31225;BME280;17847;31.524;74.366;2023-12-28T05:26:06;99406.59;;;13.31;nan
31225;BME280;17847;31.524;74.366;2023-12-28T05:28:36;99408.00;;;13.27;nan
31225;BME280;17847;31.524;74.366;2023-12-28T05:31:05;99390.13;;;13.21;nan
31225;BME280;17847;31.524;74.366;2023-12-28T05:33:35;99400.03;;;13.34;nan
31225;BME280;17847;31.524;74.366;2023-12-28T05:36:05;99405.44;;;13.40;nan
31225;BME280;17847;31.524;74.366;2023-12-28T05:38:38;99407.81;;;13.63;nan
31225;BME280;17847;31.524;74.366;2023-12-28T05:41:09;99402.97;;;13.73;nan
31225;BME280;17847;31.524;74.366;2023-12-28T05:43:40;99402.00;;;13.81;nan
31225;BME280;17847;31.524;74.366;2023-12-28T05:46:10;99401.66;;;13.90;nan
31225;BME280;17847;31.524;74.366;2023-12-28T05:48:39;99402.75;;;14.03;nan
31225;BME280;17847;31.524;74.366;2023-12-28T05:51:08;99390.63;;;13.93;nan
31225;BME280;17847;31.524;74.366;2023-12-28T05:53:38;99388.72;;;14.28;nan
31225;BME280;17847;31.524;74.366;2023-12-28T05:56:08;99388.16;;;14.39;nan
31225;BME280;17847;31.524;74.366;2023-12-28T05:58:39;99389.31;;;14.78;nan
31225;BME280;17847;31.524;74.366;2023-12-28T06:01:09;99379.84;;;14.69;nan
31225;BME280;17847;31.524;74.366;2023-12-28T06:03:38;99372.81;;;14.48;nan
31225;BME280;17847;31.524;74.366;2023-12-28T06:06:08;99366.94;;;14.79;nan
31225;BME280;17847;31.524;74.366;2023-12-28T06:08:37;99373.31;;;14.98;nan
31225;BME280;17847;31.524;74.366;2023-12-28T06:11:07;99354.84;;;15.09;nan
31225;BME280;17847;31.524;74.366;2023-12-28T06:13:36;99361.41;;;15.33;nan
31225;BME280;17847;31.524;74.366;2023-12-28T06:16:06;99355.84;;;15.41;nan
31225;BME280;17847;31.524;74.366;2023-12-28T06:18:35;99354.63;;;15.44;nan
31225;BME280;17847;31.524;74.366;2023-12-28T06:21:05;99351.09;;;15.83;nan
31225;BME280;17847;31.524;74.366;2023-12-28T06:23:35;99346.75;;;15.88;nan
31225;BME280;17847;31.524;74.366;2023-12-28T06:26:05;99345.69;;;15.96;nan
31225;BME280;17847;31.524;74.366;2023-12-28T06:28:35;99335.78;;;16.09;nan
31225;BME280;17847;31.524;74.366;2023-12-28T06:31:04;99335.78;;;16.09;nan
31225;BME280;17847;31.524;74.366;2023-12-28T06:33:34;99330.69;;;16.01;nan
31225;BME280;17847;31.524;74.366;2023-12-28T06:36:07;99321.59;;;16.02;nan
31225;BME280;17847;31.524;74.366;2023-12-28T06:38:36;99326.31;;;16.07;nan
31225;BME280;17847;31.524;74.366;2023-12-28T06:41:12;99319.69;;;16.16;nan
31225;BME280;17847;31.524;74.366;2023-12-28T06:43:42;99322.16;;;16.24;nan
31225;BME280;17847;31.524;74.366;2023-12-28T06:46:11;99313.25;;;16.30;nan
31225;BME280;17847;31.524;74.366;2023-12-28T06:48:41;99308.06;;;16.42;nan
31225;BME280;17847;31.524;74.366;2023-12-28T06:51:19;99303.38;;;16.31;nan
31225;BME280;17847;31.524;74.366;2023-12-28T06:53:49;99304.13;;;16.44;nan
31225;BME280;17847;31.524;74.366;2023-12-28T06:56:19;99297.09;;;16.18;nan
31225;BME280;17847;31.524;74.366;2023-12-28T06:58:48;99296.69;;;16.46;nan
31225;BME280;17847;31.524;74.366;2023-12-28T07:01:18;99292.34;;;16.83;nan
31225;BME280;17847;31.524;74.366;2023-12-28T07:03:47;99289.19;;;16.68;nan
31225;BME280;17847;31.524;74.366;2023-12-28T07:06:17;99284.38;;;17.01;nan
31225;BME280;17847;31.524;74.366;2023-12-28T07:08:46;99280.91;;;16.76;nan
31225;BME280;17847;31.524;74.366;2023-12-28T07:11:16;99272.59;;;16.84;nan
31225;BME280;17847;31.524;74.366;2023-12-28T07:13:45;99268.16;;;17.21;nan
31225;BME280;17847;31.524;74.366;2023-12-28T07:16:15;99269.38;;;17.19;nan
31225;BME280;17847;31.524;74.366;2023-12-28T07:18:44;99262.03;;;17.32;nan
31225;BME280;17847;31.524;74.366;2023-12-28T07:21:14;99257.19;;;17.23;nan
31225;BME280;17847;31.524;74.366;2023-12-28T07:23:43;99256.47;;;17.16;nan
31225;BME280;17847;31.524;74.366;2023-12-28T07:26:18;99257.56;;;17.08;nan
31225;BME280;17847;31.524;74.366;2023-12-28T07:28:47;99254.78;;;16.96;nan
31225;BME280;17847;31.524;74.366;2023-12-28T07:31:24;99253.69;;;17.22;nan
31225;BME280;17847;31.524;74.366;2023-12-28T07:33:55;99249.69;;;17.31;nan
31225;BME280;17847;31.524;74.366;2023-12-28T07:36:24;99244.41;;;17.25;nan
31225;BME280;17847;31.524;74.366;2023-12-28T07:38:54;99237.44;;;17.24;nan
31225;BME280;17847;31.524;74.366;2023-12-28T07:41:23;99238.59;;;17.10;nan
31225;BME280;17847;31.524;74.366;2023-12-28T07:43:52;99232.25;;;17.04;nan
31225;BME280;17847;31.524;74.366;2023-12-28T07:46:22;99227.13;;;16.84;nan
31225;BME280;17847;31.524;74.366;2023-12-28T07:48:52;99223.34;;;17.10;nan
31225;BME280;17847;31.524;74.366;2023-12-28T07:51:21;99220.53;;;17.05;nan
31225;BME280;17847;31.524;74.366;2023-12-28T07:53:51;99212.25;;;16.88;nan
31225;BME280;17847;31.524;74.366;2023-12-28T07:56:20;99211.81;;;16.91;nan
31225;BME280;17847;31.524;74.366;2023-12-28T07:58:50;99213.00;;;16.95;nan
31225;BME280;17847;31.524;74.366;2023-12-28T08:01:19;99213.56;;;16.79;nan
31225;BME280;17847;31.524;74.366;2023-12-28T08:03:49;99208.72;;;16.94;nan
31225;BME280;17847;31.524;74.366;2023-12-28T08:06:18;99201.84;;;16.80;nan
31225;BME280;17847;31.524;74.366;2023-12-28T08:08:47;99207.91;;;17.12;nan
31225;BME280;17847;31.524;74.366;2023-12-28T08:11:17;99203.75;;;17.34;nan
31225;BME280;17847;31.524;74.366;2023-12-28T08:13:47;99199.34;;;17.22;nan
31225;BME280;17847;31.524;74.366;2023-12-28T08:16:16;99195.34;;;17.13;nan
31225;BME280;17847;31.524;74.366;2023-12-28T08:18:46;99197.63;;;17.27;nan
31225;BME280;17847;31.524;74.366;2023-12-28T08:21:16;99190.72;;;17.38;nan
31225;BME280;17847;31.524;74.366;2023-12-28T08:23:46;99184.69;;;17.42;nan
31225;BME280;17847;31.524;74.366;2023-12-28T08:26:15;99179.72;;;17.46;nan
31225;BME280;17847;31.524;74.366;2023-12-28T08:28:44;99187.75;;;17.28;nan
31225;BME280;17847;31.524;74.366;2023-12-28T08:31:14;99185.91;;;17.65;nan
31225;BME280;17847;31.524;74.366;2023-12-28T08:33:44;99173.22;;;17.53;nan
31225;BME280;17847;31.524;74.366;2023-12-28T08:36:13;99174.56;;;17.44;nan
31225;BME280;17847;31.524;74.366;2023-12-28T08:38:46;99172.25;;;17.66;nan
31225;BME280;17847;31.524;74.366;2023-12-28T08:41:22;99172.84;;;17.68;nan
31225;BME280;17847;31.524;74.366;2023-12-28T08:43:55;99171.06;;;17.62;nan
31225;BME280;17847;31.524;74.366;2023-12-28T08:46:25;99173.22;;;17.53;nan
31225;BME280;17847;31.524;74.366;2023-12-28T08:48:55;99164.78;;;17.38;nan
31225;BME280;17847;31.524;74.366;2023-12-28T08:51:24;99155.47;;;17.23;nan
31225;BME280;17847;31.524;74.366;2023-12-28T08:53:54;99157.69;;;17.44;nan
31225;BME280;17847;31.524;74.366;2023-12-28T08:56:24;99153.66;;;17.35;nan
31225;BME280;17847;31.524;74.366;2023-12-28T08:58:56;99154.06;;;17.38;nan
31225;BME280;17847;31.524;74.366;2023-12-28T09:01:25;99157.41;;;17.34;nan
31225;BME280;17847;31.524;74.366;2023-12-28T09:03:55;99154.31;;;17.48;nan
31225;BME280;17847;31.524;74.366;2023-12-28T09:06:26;99150.53;;;17.56;nan
31225;BME280;17847;31.524;74.366;2023-12-28T09:08:55;99151.44;;;17.68;nan
31225;BME280;17847;31.524;74.366;2023-12-28T09:11:25;99144.75;;;17.23;nan
31225;BME280;17847;31.524;74.366;2023-12-28T09:13:56;99143.53;;;17.55;nan
31225;BME280;17847;31.524;74.366;2023-12-28T09:16:25;99146.97;;;17.62;nan
31225;BME280;17847;31.524;74.366;2023-12-28T09:18:55;99140.34;;;17.65;nan
31225;BME280;17847;31.524;74.366;2023-12-28T09:21:26;99139.72;;;17.33;nan
31225;BME280;17847;31.524;74.366;2023-12-28T09:23:55;99138.56;;;17.40;nan
31225;BME280;17847;31.524;74.366;2023-12-28T09:26:25;99147.25;;;17.54;nan
31225;BME280;17847;31.524;74.366;2023-12-28T09:28:54;99139.53;;;17.46;nan
31225;BME280;17847;31.524;74.366;2023-12-28T09:31:24;99137.22;;;17.49;nan
31225;BME280;17847;31.524;74.366;2023-12-28T09:33:53;99146.78;;;17.57;nan
31225;BME280;17847;31.524;74.366;2023-12-28T09:36:23;99148.09;;;17.36;nan
31225;BME280;17847;31.524;74.366;2023-12-28T09:38:53;99149.75;;;17.37;nan
31225;BME280;17847;31.524;74.366;2023-12-28T09:41:26;99149.69;;;17.26;nan
31225;BME280;17847;31.524;74.366;2023-12-28T09:44:22;99144.63;;;17.18;nan
31225;BME280;17847;31.524;74.366;2023-12-28T09:46:51;99144.75;;;17.23;nan
31225;BME280;17847;31.524;74.366;2023-12-28T09:49:23;99134.16;;;17.16;nan
31225;BME280;17847;31.524;74.366;2023-12-28T09:51:53;99147.59;;;17.28;nan
31225;BME280;17847;31.524;74.366;2023-12-28T09:54:23;99146.09;;;17.14;nan
31225;BME280;17847;31.524;74.366;2023-12-28T09:56:53;99154.28;;;17.00;nan
31225;BME280;17847;31.524;74.366;2023-12-28T09:59:24;99146.41;;;16.87;nan
31225;BME280;17847;31.524;74.366;2023-12-28T10:01:55;99147.44;;;17.04;nan
31225;BME280;17847;31.524;74.366;2023-12-28T10:04:26;99145.16;;;17.08;nan
31225;BME280;17847;31.524;74.366;2023-12-28T10:06:58;99151.19;;;17.03;nan
31225;BME280;17847;31.524;74.366;2023-12-28T10:09:28;99148.06;;;17.06;nan
31225;BME280;17847;31.524;74.366;2023-12-28T10:12:00;99147.44;;;16.86;nan
31225;BME280;17847;31.524;74.366;2023-12-28T10:14:32;99150.41;;;16.96;nan
31225;BME280;17847;31.524;74.366;2023-12-28T10:17:03;99159.47;;;16.95;nan
31225;BME280;17847;31.524;74.366;2023-12-28T10:19:32;99152.22;;;16.84;nan
31225;BME280;17847;31.524;74.366;2023-12-28T10:22:02;99155.53;;;16.80;nan
31225;BME280;17847;31.524;74.366;2023-12-28T10:24:32;99156.91;;;16.89;nan
31225;BME280;17847;31.524;74.366;2023-12-28T10:27:02;99147.69;;;16.85;nan
31225;BME280;17847;31.524;74.366;2023-12-28T10:29:31;99154.94;;;16.96;nan
31225;BME280;17847;31.524;74.366;2023-12-28T10:32:01;99146.16;;;16.71;nan
31225;BME280;17847;31.524;74.366;2023-12-28T10:34:30;99154.94;;;16.78;nan
31225;BME280;17847;31.524;74.366;2023-12-28T10:37:00;99152.50;;;16.76;nan
31225;BME280;17847;31.524;74.366;2023-12-28T10:39:32;99143.25;;;16.47;nan
31225;BME280;17847;31.524;74.366;2023-12-28T10:42:08;99144.59;;;16.63;nan
31225;BME280;17847;31.524;74.366;2023-12-28T10:44:41;99143.78;;;16.63;nan
31225;BME280;17847;31.524;74.366;2023-12-28T10:47:15;99146.50;;;16.81;nan
31225;BME280;17847;31.524;74.366;2023-12-28T10:49:48;99150.69;;;16.70;nan
31225;BME280;17847;31.524;74.366;2023-12-28T10:52:26;99149.69;;;16.89;nan
31225;BME280;17847;31.524;74.366;2023-12-28T11:00:30;99154.19;;;16.46;nan
31225;BME280;17847;31.524;74.366;2023-12-28T11:03:06;99160.44;;;16.33;nan
31225;BME280;17847;31.524;74.366;2023-12-28T11:05:40;99158.38;;;16.35;nan
31225;BME280;17847;31.524;74.366;2023-12-28T11:08:14;99150.28;;;16.24;nan
31225;BME280;17847;31.524;74.366;2023-12-28T11:10:44;99149.66;;;16.22;nan
31225;BME280;17847;31.524;74.366;2023-12-28T11:13:14;99144.94;;;16.24;nan
31225;BME280;17847;31.524;74.366;2023-12-28T11:15:45;99152.88;;;16.05;nan
31225;BME280;17847;31.524;74.366;2023-12-28T11:18:16;99150.97;;;16.12;nan
31225;BME280;17847;31.524;74.366;2023-12-28T11:20:49;99152.41;;;15.84;nan
31225;BME280;17847;31.524;74.366;2023-12-28T11:23:19;99158.88;;;15.94;nan
31225;BME280;17847;31.524;74.366;2023-12-28T11:25:49;99157.00;;;16.01;nan
31225;BME280;17847;31.524;74.366;2023-12-28T11:28:19;99143.56;;;15.83;nan
31225;BME280;17847;31.524;74.366;2023-12-28T11:30:51;99146.66;;;15.80;nan
31225;BME280;17847;31.524;74.366;2023-12-28T11:33:21;99152.91;;;15.99;nan
31225;BME280;17847;31.524;74.366;2023-12-28T11:35:52;99156.53;;;15.80;nan
31225;BME280;17847;31.524;74.366;2023-12-28T11:38:23;99156.44;;;15.55;nan
31225;BME280;17847;31.524;74.366;2023-12-28T11:40:54;99157.84;;;15.64;nan
31225;BME280;17847;31.524;74.366;2023-12-28T11:43:27;99155.72;;;15.35;nan
31225;BME280;17847;31.524;74.366;2023-12-28T11:46:02;99161.03;;;15.35;nan
31225;BME280;17847;31.524;74.366;2023-12-28T11:48:34;99158.03;;;15.11;nan
31225;BME280;17847;31.524;74.366;2023-12-28T11:51:04;99151.91;;;15.04;nan
31225;BME280;17847;31.524;74.366;2023-12-28T11:53:34;99158.09;;;14.98;nan
31225;BME280;17847;31.524;74.366;2023-12-28T11:56:05;99172.28;;;14.86;nan
31225;BME280;17847;31.524;74.366;2023-12-28T11:58:38;99164.25;;;14.99;nan
31225;BME280;17847;31.524;74.366;2023-12-28T12:01:08;99170.78;;;15.03;nan
31225;BME280;17847;31.524;74.366;2023-12-28T12:03:38;99179.06;;;14.81;nan
31225;BME280;17847;31.524;74.366;2023-12-28T12:06:07;99167.97;;;14.65;nan
31225;BME280;17847;31.524;74.366;2023-12-28T12:08:37;99178.47;;;14.60;nan
31225;BME280;17847;31.524;74.366;2023-12-28T12:11:07;99175.59;;;14.48;nan
31225;BME280;17847;31.524;74.366;2023-12-28T12:13:36;99172.72;;;14.50;nan
31225;BME280;17847;31.524;74.366;2023-12-28T12:16:06;99181.13;;;14.66;nan
31225;BME280;17847;31.524;74.366;2023-12-28T12:18:36;99177.66;;;14.59;nan
31225;BME280;17847;31.524;74.366;2023-12-28T12:21:06;99176.41;;;14.62;nan
31225;BME280;17847;31.524;74.366;2023-12-28T12:23:35;99175.19;;;14.38;nan
31225;BME280;17847;31.524;74.366;2023-12-28T12:26:06;99169.66;;;14.59;nan
31225;BME280;17847;31.524;74.366;2023-12-28T12:28:36;99182.97;;;14.53;nan
31225;BME280;17847;31.524;74.366;2023-12-28T12:31:06;99188.50;;;14.45;nan
31225;BME280;17847;31.524;74.366;2023-12-28T12:33:37;99197.09;;;14.33;nan
31225;BME280;17847;31.524;74.366;2023-12-28T12:36:07;99201.00;;;14.44;nan
31225;BME280;17847;31.524;74.366;2023-12-28T12:38:37;99200.56;;;14.27;nan
31225;BME280;17847;31.524;74.366;2023-12-28T12:41:07;99211.88;;;14.49;nan
31225;BME280;17847;31.524;74.366;2023-12-28T12:43:36;99210.00;;;14.23;nan
31225;BME280;17847;31.524;74.366;2023-12-28T12:46:06;99209.78;;;14.31;nan
31225;BME280;17847;31.524;74.366;2023-12-28T12:48:35;99217.13;;;14.16;nan
31225;BME280;17847;31.524;74.366;2023-12-28T12:51:05;99216.94;;;14.18;nan
31225;BME280;17847;31.524;74.366;2023-12-28T12:53:35;99219.63;;;14.31;nan
31225;BME280;17847;31.524;74.366;2023-12-28T12:56:06;99217.78;;;14.31;nan
31225;BME280;17847;31.524;74.366;2023-12-28T12:58:36;99227.66;;;14.37;nan
31225;BME280;17847;31.524;74.366;2023-12-28T13:01:10;99230.66;;;14.08;nan
31225;BME280;17847;31.524;74.366;2023-12-28T13:03:42;99239.88;;;14.12;nan
31225;BME280;17847;31.524;74.366;2023-12-28T13:06:14;99240.94;;;14.11;nan
31225;BME280;17847;31.524;74.366;2023-12-28T13:08:44;99244.38;;;14.12;nan
31225;BME280;17847;31.524;74.366;2023-12-28T13:11:14;99248.63;;;13.86;nan
31225;BME280;17847;31.524;74.366;2023-12-28T13:13:44;99253.56;;;13.89;nan
31225;BME280;17847;31.524;74.366;2023-12-28T13:16:15;99259.94;;;14.02;nan
31225;BME280;17847;31.524;74.366;2023-12-28T13:18:45;99267.31;;;13.93;nan
31225;BME280;17847;31.524;74.366;2023-12-28T13:21:15;99266.09;;;14.02;nan
31225;BME280;17847;31.524;74.366;2023-12-28T13:23:44;99271.66;;;14.07;nan
31225;BME280;17847;31.524;74.366;2023-12-28T13:26:14;99270.53;;;13.82;nan
31225;BME280;17847;31.524;74.366;2023-12-28T13:28:44;99276.78;;;14.15;nan
31225;BME280;17847;31.524;74.366;2023-12-28T13:31:13;99279.69;;;14.20;nan
31225;BME280;17847;31.524;74.366;2023-12-28T13:33:43;99290.31;;;14.14;nan